Time;durP1;ratioP1;P1;durP2;ratioP2;P2;SDS_P1;SDS_P2;PMS_P1;PMS_P2;Temp;Humidity;BMP_temperature;BMP_pressure;BME280_temperature;BME280_humidity;BME280_pressure;Samples;Min_cycle;Max_cycle;Signal;HPM_P1;HPM_P2
2021/07/22 00:01:33;;;;;;;542.13;440.48;;;;;;;;;;4941890;28;20496;-79
2021/07/22 00:04:00;;;;;;;539.95;426.67;;;;;;;;;;4939565;28;20046;-80
2021/07/22 00:06:26;;;;;;;541.58;434.15;;;;;;;;;;4940831;28;20027;-79
2021/07/22 00:08:52;;;;;;;541.35;435.58;;;;;;;;;;4941829;28;20033;-79
2021/07/22 00:11:18;;;;;;;543.97;445.00;;;;;;;;;;4965599;28;20058;-79
2021/07/22 00:13:44;;;;;;;540.13;432.95;;;;;;;;;;4963325;28;20057;-79
2021/07/22 00:16:14;;;;;;;541.67;436.00;;;;;;;;;;4948478;28;20035;-80
2021/07/22 00:18:40;;;;;;;;;;;;;;;;;;4939734;28;20027;-80
2021/07/22 00:21:07;;;;;;;539.83;421.92;;;;;;;;;;4934278;28;19936;-80
2021/07/22 00:23:32;;;;;;;540.75;429.90;;;;;;;;;;4942173;28;20031;-79
2021/07/22 00:26:02;;;;;;;539.10;427.40;;;;;;;;;;4946777;28;20427;-79
2021/07/22 00:28:28;;;;;;;537.80;420.08;;;;;;;;;;4942880;28;20047;-79
2021/07/22 00:30:55;;;;;;;540.20;432.45;;;;;;;;;;4939558;28;20074;-79
2021/07/22 00:33:22;;;;;;;541.58;432.60;;;;;;;;;;4937049;28;20026;-79
2021/07/22 00:35:48;;;;;;;540.75;430.33;;;;;;;;;;4944674;28;20043;-79
2021/07/22 00:38:15;;;;;;;541.35;433.42;;;;;;;;;;4947829;28;20038;-79
2021/07/22 00:40:45;;;;;;;543.83;440.13;;;;;;;;;;4938738;28;20039;-79
2021/07/22 00:43:11;;;;;;;541.75;431.92;;;;;;;;;;4941409;28;20463;-78
2021/07/22 00:45:37;;;;;;;540.05;425.13;;;;;;;;;;4942582;28;20035;-79
2021/07/22 00:48:03;;;;;;;539.88;426.85;;;;;;;;;;4946587;28;20027;-78
2021/07/22 00:50:29;;;;;;;540.55;426.40;;;;;;;;;;4940657;28;20643;-78
2021/07/22 00:52:55;;;;;;;543.58;434.77;;;;;;;;;;4938158;28;20466;-78
2021/07/22 00:55:26;;;;;;;539.28;428.77;;;;;;;;;;4940312;28;20174;-78
2021/07/22 00:57:52;;;;;;;539.95;424.45;;;;;;;;;;4965110;28;20030;-79
2021/07/22 01:00:18;;;;;;;541.75;426.38;;;;;;;;;;4940643;28;20398;-79
2021/07/22 01:02:44;;;;;;;540.50;427.92;;;;;;;;;;4944580;28;20162;-79
2021/07/22 01:05:10;;;;;;;539.80;424.13;;;;;;;;;;4941403;28;20125;-78
2021/07/22 01:07:37;;;;;;;538.67;422.20;;;;;;;;;;4962838;28;20453;-78
2021/07/22 01:10:03;;;;;;;538.33;419.48;;;;;;;;;;4946939;28;20035;-79
2021/07/22 01:12:29;;;;;;;539.00;420.48;;;;;;;;;;4962553;28;20039;-79
2021/07/22 01:14:55;;;;;;;537.63;419.35;;;;;;;;;;4936672;28;20046;-79
2021/07/22 01:17:27;;;;;;;541.50;429.35;;;;;;;;;;4942173;28;20043;-78
2021/07/22 01:19:53;;;;;;;542.13;425.38;;;;;;;;;;4942327;28;20042;-79
2021/07/22 01:22:19;;;;;;;539.45;422.02;;;;;;;;;;4964745;28;20030;-79
2021/07/22 01:24:45;;;;;;;538.33;419.73;;;;;;;;;;4964005;28;20038;-78
2021/07/22 01:27:11;;;;;;;541.50;427.35;;;;;;;;;;4958742;28;20110;-78
2021/07/22 01:29:37;;;;;;;538.65;420.45;;;;;;;;;;4936428;28;20360;-79
2021/07/22 01:32:06;;;;;;;543.90;431.08;;;;;;;;;;4940351;28;20094;-78
2021/07/22 01:34:32;;;;;;;541.33;429.02;;;;;;;;;;4940425;28;20473;-78
2021/07/22 01:36:58;;;;;;;540.30;423.67;;;;;;;;;;4946610;28;20035;-78
2021/07/22 01:39:25;;;;;;;539.67;422.45;;;;;;;;;;4945338;28;20040;-78
2021/07/22 01:41:51;;;;;;;542.33;427.98;;;;;;;;;;4969076;28;20046;-78
2021/07/22 01:44:17;;;;;;;542.45;432.55;;;;;;;;;;4941808;28;20441;-78
2021/07/22 01:46:43;;;;;;;540.08;426.80;;;;;;;;;;4948483;28;20026;-78
2021/07/22 01:49:08;;;;;;;541.63;428.98;;;;;;;;;;4941101;28;20134;-78
2021/07/22 01:51:35;;;;;;;545.10;437.08;;;;;;;;;;4940366;28;20035;-78
2021/07/22 01:54:01;;;;;;;544.42;441.27;;;;;;;;;;4965395;28;20098;-78
2021/07/22 01:56:27;;;;;;;538.50;423.02;;;;;;;;;;4946937;28;20035;-78
2021/07/22 01:58:53;;;;;;;540.72;430.25;;;;;;;;;;4947205;28;20509;-78
2021/07/22 02:01:18;;;;;;;539.65;428.75;;;;;;;;;;4966555;28;20568;-78
2021/07/22 02:03:44;;;;;;;541.90;435.55;;;;;;;;;;4964754;28;20026;-79
2021/07/22 02:06:12;;;;;;;540.35;432.00;;;;;;;;;;4968279;28;20030;-78
2021/07/22 02:08:38;;;;;;;542.50;436.90;;;;;;;;;;4967853;28;20026;-78
2021/07/22 02:11:04;;;;;;;540.60;433.55;;;;;;;;;;4942536;28;20034;-79
2021/07/22 02:13:32;;;;;;;538.85;428.40;;;;;;;;;;4966822;28;20023;-80
2021/07/22 02:15:58;;;;;;;538.13;428.65;;;;;;;;;;4944953;28;20113;-79
2021/07/22 02:18:24;;;;;;;538.53;429.85;;;;;;;;;;4941341;28;20668;-79
2021/07/22 02:20:50;;;;;;;538.55;426.25;;;;;;;;;;4946874;28;20058;-79
2021/07/22 02:23:16;;;;;;;540.22;430.05;;;;;;;;;;4946543;28;20058;-79
2021/07/22 02:25:42;;;;;;;539.45;430.60;;;;;;;;;;4947590;28;20066;-79
2021/07/22 02:28:08;;;;;;;539.60;428.02;;;;;;;;;;4944627;28;20039;-79
2021/07/22 02:30:35;;;;;;;536.08;417.30;;;;;;;;;;4948671;28;20065;-79
2021/07/22 02:33:00;;;;;;;534.90;419.55;;;;;;;;;;4938782;28;20031;-78
2021/07/22 02:35:26;;;;;;;539.20;424.27;;;;;;;;;;4944248;28;20034;-78
2021/07/22 02:37:52;;;;;;;538.58;424.35;;;;;;;;;;4948803;28;20035;-78
2021/07/22 02:40:18;;;;;;;538.38;421.35;;;;;;;;;;4948344;28;20078;-79
2021/07/22 02:42:44;;;;;;;542.78;429.00;;;;;;;;;;4945287;28;20030;-79
2021/07/22 02:45:10;;;;;;;541.70;431.20;;;;;;;;;;4942003;28;20651;-79
2021/07/22 02:47:36;;;;;;;541.63;429.25;;;;;;;;;;4938099;28;20126;-79
2021/07/22 02:50:03;;;;;;;539.22;431.67;;;;;;;;;;4943728;28;20563;-78
2021/07/22 02:52:30;;;;;;;538.50;432.60;;;;;;;;;;4946206;28;20054;-78
2021/07/22 02:54:57;;;;;;;539.60;427.95;;;;;;;;;;4965100;28;20053;-78
2021/07/22 02:57:23;;;;;;;538.90;427.77;;;;;;;;;;4966942;28;20070;-78
2021/07/22 02:59:49;;;;;;;539.80;428.05;;;;;;;;;;4967082;28;20070;-78
2021/07/22 03:02:15;;;;;;;541.38;429.88;;;;;;;;;;4945067;28;20045;-78
2021/07/22 03:04:41;;;;;;;541.28;428.63;;;;;;;;;;4936470;28;20030;-78
2021/07/22 03:07:07;;;;;;;542.13;430.83;;;;;;;;;;4945104;28;20019;-78
2021/07/22 03:09:33;;;;;;;542.75;437.63;;;;;;;;;;4940824;28;20046;-78
2021/07/22 03:11:59;;;;;;;542.00;431.38;;;;;;;;;;4940950;28;20034;-79
2021/07/22 03:14:25;;;;;;;539.42;428.08;;;;;;;;;;4960704;28;20062;-78
2021/07/22 03:16:51;;;;;;;541.20;431.75;;;;;;;;;;4966705;28;20438;-78
2021/07/22 03:19:17;;;;;;;542.47;433.48;;;;;;;;;;4939351;28;20426;-78
2021/07/22 03:21:43;;;;;;;540.80;434.75;;;;;;;;;;4966441;28;20390;-78
2021/07/22 03:24:09;;;;;;;539.38;425.60;;;;;;;;;;4942391;28;20394;-78
2021/07/22 03:26:35;;;;;;;542.13;434.13;;;;;;;;;;4966236;28;20031;-78
2021/07/22 03:29:02;;;;;;;540.13;430.17;;;;;;;;;;4945602;28;20418;-78
2021/07/22 03:31:28;;;;;;;539.58;426.75;;;;;;;;;;4965358;28;20027;-78
2021/07/22 03:33:55;;;;;;;540.90;430.02;;;;;;;;;;4966138;28;20537;-78
2021/07/22 03:36:21;;;;;;;540.38;427.27;;;;;;;;;;4961689;28;20313;-78
2021/07/22 03:38:47;;;;;;;538.28;418.27;;;;;;;;;;4945818;28;20198;-78
2021/07/22 03:41:14;;;;;;;542.00;426.13;;;;;;;;;;4966393;28;20058;-78
2021/07/22 03:43:40;;;;;;;541.58;422.63;;;;;;;;;;4965936;28;20023;-78
2021/07/22 03:46:06;;;;;;;539.88;420.60;;;;;;;;;;4942474;28;20031;-78
2021/07/22 03:48:31;;;;;;;538.35;414.65;;;;;;;;;;4965218;28;20107;-78
2021/07/22 03:50:57;;;;;;;538.28;420.02;;;;;;;;;;4942921;28;20302;-78
2021/07/22 03:53:23;;;;;;;538.55;419.02;;;;;;;;;;4943882;28;20047;-78
2021/07/22 03:55:49;;;;;;;536.85;416.17;;;;;;;;;;4939951;28;20027;-78
2021/07/22 03:58:15;;;;;;;534.65;410.75;;;;;;;;;;4949615;28;20035;-78
2021/07/22 04:00:41;;;;;;;539.53;422.05;;;;;;;;;;4964744;28;20034;-78
2021/07/22 04:03:07;;;;;;;537.60;418.98;;;;;;;;;;4940501;28;20023;-78
2021/07/22 04:05:34;;;;;;;542.05;425.75;;;;;;;;;;4939791;28;20105;-78
2021/07/22 04:08:00;;;;;;;539.10;420.85;;;;;;;;;;4944925;28;20139;-78
2021/07/22 04:10:27;;;;;;;539.60;423.02;;;;;;;;;;4964615;28;20118;-78
2021/07/22 04:12:56;;;;;;;539.72;420.73;;;;;;;;;;4961599;28;20046;-78
2021/07/22 04:15:25;;;;;;;540.38;422.65;;;;;;;;;;4943588;28;20039;-78
2021/07/22 04:17:51;;;;;;;542.72;426.52;;;;;;;;;;4965382;28;20046;-78
2021/07/22 04:20:18;;;;;;;536.97;407.30;;;;;;;;;;4937909;28;20026;-78
2021/07/22 04:22:44;;;;;;;542.90;428.60;;;;;;;;;;4964714;28;20483;-78
2021/07/22 04:25:10;;;;;;;540.78;419.70;;;;;;;;;;4960014;28;20030;-78
2021/07/22 04:27:36;;;;;;;544.10;427.45;;;;;;;;;;4965462;28;20724;-78
2021/07/22 04:30:02;;;;;;;542.83;431.35;;;;;;;;;;4941896;28;20034;-78
2021/07/22 04:32:28;;;;;;;539.55;423.95;;;;;;;;;;4964810;28;20486;-78
2021/07/22 04:34:54;;;;;;;543.10;427.27;;;;;;;;;;4939925;28;20027;-78
2021/07/22 04:37:20;;;;;;;540.80;421.38;;;;;;;;;;4944792;28;20031;-78
2021/07/22 04:39:46;;;;;;;543.10;430.67;;;;;;;;;;4946144;28;20031;-78
2021/07/22 04:42:12;;;;;;;541.63;427.13;;;;;;;;;;4943186;28;20073;-78
2021/07/22 04:44:38;;;;;;;540.47;423.67;;;;;;;;;;4938599;29;20023;-78
2021/07/22 04:47:04;;;;;;;543.83;423.33;;;;;;;;;;4948014;28;20031;-78
2021/07/22 04:49:30;;;;;;;543.55;431.83;;;;;;;;;;4941630;29;20031;-78
2021/07/22 04:51:59;;;;;;;543.42;434.33;;;;;;;;;;4932072;29;20046;-78
2021/07/22 04:54:25;;;;;;;545.13;438.60;;;;;;;;;;4956363;28;20045;-79
2021/07/22 04:56:51;;;;;;;545.88;438.38;;;;;;;;;;4951438;28;20174;-78
2021/07/22 04:59:17;;;;;;;542.53;432.40;;;;;;;;;;4940001;29;20032;-78
2021/07/22 05:01:43;;;;;;;545.70;437.55;;;;;;;;;;4954688;28;20035;-78
2021/07/22 05:04:15;;;;;;;546.22;445.90;;;;;;;;;;4945115;29;20117;-78
2021/07/22 05:06:41;;;;;;;545.83;444.52;;;;;;;;;;4932353;29;20050;-78
2021/07/22 05:09:07;;;;;;;544.33;437.27;;;;;;;;;;4934236;29;20028;-78
2021/07/22 05:11:33;;;;;;;544.25;437.75;;;;;;;;;;4955128;28;20445;-79
2021/07/22 05:13:59;;;;;;;543.92;439.80;;;;;;;;;;4946168;28;20027;-79
2021/07/22 05:16:25;;;;;;;546.17;445.10;;;;;;;;;;4950619;28;20034;-79
2021/07/22 05:18:51;;;;;;;545.58;439.95;;;;;;;;;;4936124;28;20028;-79
2021/07/22 05:21:19;;;;;;;544.78;439.80;;;;;;;;;;4968313;28;20086;-79
2021/07/22 05:23:54;;;;;;;547.70;448.73;;;;;;;;;;4962954;28;20039;-79
2021/07/22 05:26:20;;;;;;;545.53;445.08;;;;;;;;;;4944785;28;20031;-79
2021/07/22 05:28:46;;;;;;;544.58;441.40;;;;;;;;;;4970635;28;20386;-79
2021/07/22 05:31:12;;;;;;;545.72;441.42;;;;;;;;;;4971418;28;20033;-79
2021/07/22 05:33:39;;;;;;;555.53;446.08;;;;;;;;;;4965310;28;20478;-79
2021/07/22 05:36:06;;;;;;;548.20;446.15;;;;;;;;;;4954089;28;20026;-79
2021/07/22 05:38:33;;;;;;;545.63;441.70;;;;;;;;;;4957081;28;20133;-79
2021/07/22 05:40:59;;;;;;;546.35;446.70;;;;;;;;;;4946442;29;20028;-79
2021/07/22 05:43:26;;;;;;;549.22;446.15;;;;;;;;;;4958025;28;20035;-78
2021/07/22 05:45:52;;;;;;;544.83;445.90;;;;;;;;;;4943230;29;20454;-79
2021/07/22 05:48:18;;;;;;;546.63;452.08;;;;;;;;;;4940787;28;20114;-78
2021/07/22 05:50:44;;;;;;;546.92;452.08;;;;;;;;;;4947427;29;20435;-79
2021/07/22 05:53:10;;;;;;;546.53;449.80;;;;;;;;;;4934459;28;20043;-79
2021/07/22 05:55:36;;;;;;;548.20;450.48;;;;;;;;;;4971590;28;20031;-80
2021/07/22 05:58:02;;;;;;;552.47;454.83;;;;;;;;;;4964695;28;20035;-79
2021/07/22 06:00:28;;;;;;;546.97;448.95;;;;;;;;;;4947261;29;20053;-79
2021/07/22 06:02:54;;;;;;;546.17;447.67;;;;;;;;;;4951704;28;20090;-79
2021/07/22 06:05:20;;;;;;;553.05;458.63;;;;;;;;;;4943586;29;20024;-79
2021/07/22 06:07:46;;;;;;;548.35;453.45;;;;;;;;;;4952429;28;20054;-78
2021/07/22 06:10:13;;;;;;;546.00;454.05;;;;;;;;;;4941654;28;20034;-79
2021/07/22 06:12:39;;;;;;;547.92;455.90;;;;;;;;;;4942384;29;20028;-78
2021/07/22 06:15:05;;;;;;;550.70;457.88;;;;;;;;;;4941404;28;20045;-79
2021/07/22 06:17:34;;;;;;;549.53;453.55;;;;;;;;;;4947966;29;20070;-78
2021/07/22 06:20:00;;;;;;;546.88;457.02;;;;;;;;;;4944467;28;20110;-79
2021/07/22 06:22:26;;;;;;;545.70;450.08;;;;;;;;;;4965375;28;20111;-77
2021/07/22 06:24:52;;;;;;;549.00;462.92;;;;;;;;;;4949702;28;20062;-77
2021/07/22 06:27:18;;;;;;;547.88;456.63;;;;;;;;;;4951848;28;20023;-79
2021/07/22 06:29:44;;;;;;;546.72;458.48;;;;;;;;;;4943741;28;20426;-79
2021/07/22 06:32:10;;;;;;;548.55;462.52;;;;;;;;;;4947857;28;20043;-76
2021/07/22 06:34:36;;;;;;;546.67;455.25;;;;;;;;;;4939096;29;20035;-78
2021/07/22 06:37:02;;;;;;;551.15;463.13;;;;;;;;;;4946684;29;20074;-80
2021/07/22 06:39:32;;;;;;;550.33;469.25;;;;;;;;;;4968083;28;20665;-75
2021/07/22 06:41:58;;;;;;;;;;;;;;;;;;4955181;29;20027;-75
2021/07/22 06:44:24;;;;;;;544.88;445.23;;;;;;;;;;4955366;29;19907;-79
2021/07/22 06:46:50;;;;;;;548.40;461.08;;;;;;;;;;4938965;29;20031;-81
2021/07/22 06:49:25;;;;;;;548.95;464.67;;;;;;;;;;4947454;28;20023;-78
2021/07/22 06:51:51;;;;;;;546.22;457.17;;;;;;;;;;4957967;28;20118;-79
2021/07/22 06:54:18;;;;;;;551.88;468.13;;;;;;;;;;4956670;28;20030;-74
2021/07/22 06:56:44;;;;;;;551.53;471.30;;;;;;;;;;4972211;28;20051;-74
2021/07/22 06:59:10;;;;;;;548.78;461.45;;;;;;;;;;4967347;28;20077;-73
2021/07/22 07:01:37;;;;;;;550.88;470.48;;;;;;;;;;4967693;28;20098;-79
2021/07/22 07:04:03;;;;;;;549.38;466.55;;;;;;;;;;4939517;28;20035;-81
2021/07/22 07:06:30;;;;;;;550.75;469.88;;;;;;;;;;4973336;28;20027;-78
2021/07/22 07:08:56;;;;;;;550.65;471.02;;;;;;;;;;4956531;28;20077;-75
2021/07/22 07:11:23;;;;;;;552.30;470.10;;;;;;;;;;4939087;29;20031;-77
2021/07/22 07:13:50;;;;;;;554.00;467.02;;;;;;;;;;4965144;28;20360;-74
2021/07/22 07:16:17;;;;;;;549.20;466.63;;;;;;;;;;4938438;29;20031;-74
2021/07/22 07:18:43;;;;;;;553.63;478.63;;;;;;;;;;4939837;28;20041;-80
2021/07/22 07:21:09;;;;;;;553.67;480.50;;;;;;;;;;4940111;28;20031;-80
2021/07/22 07:23:35;;;;;;;555.88;481.85;;;;;;;;;;4948261;28;20026;-78
2021/07/22 07:26:01;;;;;;;551.50;474.85;;;;;;;;;;4969024;28;20635;-77
2021/07/22 07:28:28;;;;;;;549.53;478.17;;;;;;;;;;4950252;28;20038;-77
2021/07/22 07:30:54;;;;;;;548.63;474.70;;;;;;;;;;4954476;28;20039;-76
2021/07/22 07:33:21;;;;;;;549.80;474.83;;;;;;;;;;4952247;28;20410;-74
2021/07/22 07:35:47;;;;;;;549.25;473.33;;;;;;;;;;4973279;28;20110;-78
2021/07/22 07:38:13;;;;;;;547.78;469.13;;;;;;;;;;4945241;28;20041;-75
2021/07/22 07:40:39;;;;;;;548.28;470.55;;;;;;;;;;4942642;28;20531;-77
2021/07/22 07:43:05;;;;;;;549.35;471.73;;;;;;;;;;4968985;28;20080;-78
2021/07/22 07:45:31;;;;;;;548.15;471.98;;;;;;;;;;4951593;28;20467;-78
2021/07/22 07:47:57;;;;;;;550.40;472.25;;;;;;;;;;4942011;29;20097;-74
2021/07/22 07:50:23;;;;;;;548.15;472.10;;;;;;;;;;4954150;29;20027;-77
2021/07/22 07:52:49;;;;;;;551.05;482.00;;;;;;;;;;4937914;29;20058;-76
2021/07/22 07:55:15;;;;;;;552.15;485.45;;;;;;;;;;4955308;29;20023;-74
2021/07/22 07:57:41;;;;;;;551.65;483.70;;;;;;;;;;4937859;28;20491;-79
2021/07/22 08:00:08;;;;;;;550.78;482.15;;;;;;;;;;4953644;29;20024;-78
2021/07/22 08:02:34;;;;;;;554.80;493.38;;;;;;;;;;4941757;28;20467;-73
2021/07/22 08:05:00;;;;;;;563.05;501.42;;;;;;;;;;4957255;28;20034;-77
2021/07/22 08:07:27;;;;;;;562.15;500.60;;;;;;;;;;4969808;28;20070;-76
2021/07/22 08:09:53;;;;;;;562.53;500.95;;;;;;;;;;4949582;28;20035;-78
2021/07/22 08:12:19;;;;;;;557.80;496.27;;;;;;;;;;4943970;28;20035;-77
2021/07/22 08:14:46;;;;;;;556.88;495.42;;;;;;;;;;4947143;28;20027;-77
2021/07/22 08:17:16;;;;;;;552.03;490.52;;;;;;;;;;4956873;28;20031;-75
2021/07/22 08:19:42;;;;;;;550.42;482.50;;;;;;;;;;4954583;28;20035;-77
2021/07/22 08:22:13;;;;;;;550.70;485.77;;;;;;;;;;4955700;28;20027;-74
2021/07/22 08:24:38;;;;;;;554.42;493.15;;;;;;;;;;4952750;28;20154;-78
2021/07/22 08:27:05;;;;;;;558.22;496.77;;;;;;;;;;4972095;28;20101;-75
2021/07/22 08:29:31;;;;;;;565.80;504.27;;;;;;;;;;4969326;28;20471;-78
2021/07/22 08:31:57;;;;;;;572.75;511.05;;;;;;;;;;4966241;28;20026;-77
2021/07/22 08:34:24;;;;;;;581.38;519.53;;;;;;;;;;4945816;28;20402;-77
2021/07/22 08:36:50;;;;;;;573.47;511.88;;;;;;;;;;4932490;29;20459;-78
2021/07/22 08:39:16;;;;;;;580.25;518.60;;;;;;;;;;4944254;28;20091;-75
2021/07/22 08:41:47;;;;;;;583.20;519.95;;;;;;;;;;4941448;28;20027;-79
2021/07/22 08:44:13;;;;;;;;;;;;;;;;;;4957535;28;20414;-79
2021/07/22 08:46:41;;;;;;;566.65;505.05;;;;;;;;;;4949388;28;19910;-79
2021/07/22 08:49:08;;;;;;;569.83;508.42;;;;;;;;;;4944915;28;20085;-81
2021/07/22 08:51:34;;;;;;;574.53;513.05;;;;;;;;;;4946066;28;20104;-80
2021/07/22 08:54:01;;;;;;;574.92;513.33;;;;;;;;;;4952052;28;20034;-79
2021/07/22 08:56:28;;;;;;;587.90;525.90;;;;;;;;;;4967657;28;20062;-77
2021/07/22 08:59:14;;;;;;;580.25;518.53;;;;;;;;;;4955755;28;20031;-80
2021/07/22 09:01:43;;;;;;;574.60;513.05;;;;;;;;;;4951150;28;20042;-79
2021/07/22 09:04:09;;;;;;;583.58;521.75;;;;;;;;;;4944143;28;20031;-81
2021/07/22 09:06:35;;;;;;;578.65;517.00;;;;;;;;;;4955052;28;20027;-79
2021/07/22 09:09:15;;;;;;;580.85;519.22;;;;;;;;;;4938575;29;20027;-79
2021/07/22 09:11:50;;;;;;;574.42;512.75;;;;;;;;;;4971686;28;20758;-80
2021/07/22 09:14:16;;;;;;;580.85;518.92;;;;;;;;;;4954313;28;20023;-79
2021/07/22 09:16:42;;;;;;;583.83;521.83;;;;;;;;;;4953058;28;20078;-77
2021/07/22 09:19:11;;;;;;;589.47;527.55;;;;;;;;;;4955274;28;20062;-78
2021/07/22 09:21:40;;;;;;;603.58;541.47;;;;;;;;;;4973060;28;20096;-79
2021/07/22 09:24:10;;;;;;;621.90;559.60;;;;;;;;;;4942785;29;20027;-78
2021/07/22 09:26:36;;;;;;;;;;;;;;;;;;4954726;29;20475;-78
2021/07/22 09:29:12;;;;;;;646.80;583.85;;;;;;;;;;4954185;29;20049;-79
2021/07/22 09:31:38;;;;;;;670.00;606.85;;;;;;;;;;4937115;29;20031;-78
2021/07/22 09:34:14;;;;;;;695.00;631.22;;;;;;;;;;4936567;29;20035;-76
2021/07/22 09:36:40;;;;;;;728.42;663.95;;;;;;;;;;4973354;28;20034;-75
2021/07/22 09:39:23;;;;;;;743.53;678.83;;;;;;;;;;4973137;28;20027;-82
2021/07/22 09:41:57;;;;;;;742.22;677.60;;;;;;;;;;4963269;28;20027;-74
2021/07/22 09:44:29;;;;;;;739.35;674.78;;;;;;;;;;4936752;29;20055;-78
2021/07/22 09:46:56;;;;;;;740.15;675.60;;;;;;;;;;4945451;28;20030;-79
2021/07/22 09:49:29;;;;;;;744.90;680.22;;;;;;;;;;4943553;28;20122;-82
2021/07/22 09:51:58;;;;;;;750.08;685.13;;;;;;;;;;4958391;28;20035;-78
2021/07/22 09:54:33;;;;;;;756.58;691.60;;;;;;;;;;4954942;28;20687;-77
2021/07/22 09:57:01;;;;;;;747.13;682.50;;;;;;;;;;4957549;28;20035;-77
2021/07/22 09:59:29;;;;;;;733.60;669.30;;;;;;;;;;4975756;28;20033;-79
2021/07/22 10:01:58;;;;;;;747.83;682.85;;;;;;;;;;4956609;28;20078;-78
2021/07/22 10:04:28;;;;;;;750.67;685.80;;;;;;;;;;4963775;28;20015;-75
2021/07/22 10:06:55;;;;;;;750.30;685.55;;;;;;;;;;4948726;28;20027;-77
2021/07/22 10:09:22;;;;;;;741.22;676.85;;;;;;;;;;4970783;28;20034;-77
2021/07/22 10:11:48;;;;;;;720.13;656.15;;;;;;;;;;4952001;28;20034;-81
2021/07/22 10:14:18;;;;;;;719.08;654.92;;;;;;;;;;4954117;29;20027;-82
2021/07/22 10:16:45;;;;;;;713.55;649.58;;;;;;;;;;4948300;29;20034;-76
2021/07/22 10:19:11;;;;;;;708.15;644.05;;;;;;;;;;4939057;29;20039;-75
2021/07/22 10:21:37;;;;;;;687.95;624.10;;;;;;;;;;4952730;28;20027;-80
2021/07/22 10:24:05;;;;;;;686.47;622.67;;;;;;;;;;4946471;29;20095;-80
2021/07/22 10:26:32;;;;;;;684.88;621.03;;;;;;;;;;4943216;29;20030;-77
2021/07/22 10:28:58;;;;;;;684.60;620.67;;;;;;;;;;4973151;28;20042;-77
2021/07/22 10:31:24;;;;;;;691.45;627.30;;;;;;;;;;4975169;28;20035;-80
2021/07/22 10:33:55;;;;;;;707.88;643.50;;;;;;;;;;4958350;28;20027;-81
2021/07/22 10:36:23;;;;;;;737.45;672.58;;;;;;;;;;4973487;28;20111;-75
2021/07/22 10:38:49;;;;;;;770.33;704.95;;;;;;;;;;4956001;28;20031;-81
2021/07/22 10:41:35;;;;;;;783.95;718.20;;;;;;;;;;4941025;29;20063;-77
2021/07/22 10:44:01;;;;;;;762.78;697.95;;;;;;;;;;4973002;28;20466;-80
2021/07/22 10:46:47;;;;;;;760.28;695.45;;;;;;;;;;4944032;28;20043;-78
2021/07/22 10:49:14;;;;;;;778.17;712.53;;;;;;;;;;4948959;28;20248;-83
2021/07/22 10:51:40;;;;;;;802.45;736.20;;;;;;;;;;4947177;28;20027;-82
2021/07/22 10:54:06;;;;;;;798.35;731.78;;;;;;;;;;4972386;28;20027;-80
2021/07/22 10:56:35;;;;;;;793.92;728.38;;;;;;;;;;4957906;28;20375;-78
2021/07/22 10:59:01;;;;;;;780.67;715.13;;;;;;;;;;4949590;28;20089;-79
2021/07/22 11:01:42;;;;;;;752.25;687.58;;;;;;;;;;4953320;28;20442;-77
2021/07/22 11:04:18;;;;;;;765.25;699.90;;;;;;;;;;4942365;29;20035;-81
2021/07/22 11:06:59;;;;;;;787.55;721.38;;;;;;;;;;4941452;28;20019;-77
2021/07/22 11:09:40;;;;;;;803.00;737.13;;;;;;;;;;4974508;28;20031;-84
2021/07/22 11:12:06;;;;;;;794.90;729.38;;;;;;;;;;4957114;28;20556;-80
2021/07/22 11:14:33;;;;;;;789.15;723.65;;;;;;;;;;4975351;28;20039;-78
2021/07/22 11:16:59;;;;;;;773.55;708.50;;;;;;;;;;4947019;29;20162;-82
2021/07/22 11:19:27;;;;;;;768.03;702.97;;;;;;;;;;4961900;28;20030;-82
2021/07/22 11:21:53;;;;;;;774.28;708.72;;;;;;;;;;4975385;28;20058;-77
2021/07/22 11:24:25;;;;;;;776.20;710.92;;;;;;;;;;4944012;29;20034;-80
2021/07/22 11:26:52;;;;;;;767.90;702.78;;;;;;;;;;4945070;28;20027;-86
2021/07/22 11:29:19;;;;;;;758.28;693.17;;;;;;;;;;4965231;28;20031;-86
2021/07/22 11:31:49;;;;;;;749.72;684.70;;;;;;;;;;4967772;28;20034;-78
2021/07/22 11:34:16;;;;;;;718.53;654.22;;;;;;;;;;4963989;28;20037;-77
2021/07/22 11:36:43;;;;;;;718.40;653.90;;;;;;;;;;4957016;28;20728;-76
2021/07/22 11:39:09;;;;;;;716.78;652.28;;;;;;;;;;4947783;29;20020;-78
2021/07/22 11:41:35;;;;;;;713.53;649.08;;;;;;;;;;4954437;29;20027;-85
2021/07/22 11:44:02;;;;;;;722.70;657.60;;;;;;;;;;4954964;28;20030;-75
2021/07/22 11:46:34;;;;;;;737.55;672.85;;;;;;;;;;4957833;28;20023;-80
2021/07/22 11:49:05;;;;;;;748.10;683.10;;;;;;;;;;4952070;28;20018;-79
2021/07/22 11:51:31;;;;;;;734.72;670.35;;;;;;;;;;4943047;28;20061;-78
2021/07/22 11:54:00;;;;;;;741.58;676.75;;;;;;;;;;4949134;28;20105;-78
2021/07/22 11:56:33;;;;;;;720.75;656.30;;;;;;;;;;4951453;28;20035;-78
2021/07/22 11:59:04;;;;;;;719.08;654.63;;;;;;;;;;4970976;28;20034;-85
2021/07/22 12:01:32;;;;;;;707.78;642.92;;;;;;;;;;4941072;29;20031;-84
2021/07/22 12:03:58;;;;;;;705.65;641.05;;;;;;;;;;4942752;29;20390;-78
2021/07/22 12:06:24;;;;;;;698.70;634.55;;;;;;;;;;4951879;28;20061;-84
2021/07/22 12:09:02;;;;;;;715.30;650.47;;;;;;;;;;4942883;29;20039;-77
2021/07/22 12:11:28;;;;;;;710.95;646.42;;;;;;;;;;4948349;28;20069;-85
2021/07/22 12:13:54;;;;;;;702.83;638.40;;;;;;;;;;4948206;29;20031;-78
2021/07/22 12:16:21;;;;;;;716.97;652.13;;;;;;;;;;4938795;28;20058;-80
2021/07/22 12:18:49;;;;;;;716.63;652.00;;;;;;;;;;4938784;29;20035;-87
2021/07/22 12:21:19;;;;;;;724.92;660.28;;;;;;;;;;4936547;29;20027;-78
2021/07/22 12:23:45;;;;;;;731.72;666.90;;;;;;;;;;4938166;29;20066;-77
2021/07/22 12:26:10;;;;;;;759.47;694.00;;;;;;;;;;4943504;28;20644;-76
2021/07/22 12:28:36;;;;;;;774.70;708.85;;;;;;;;;;4973684;28;20023;-79
2021/07/22 12:31:24;;;;;;;795.38;729.17;;;;;;;;;;4945704;28;20031;-82
2021/07/22 12:33:57;;;;;;;810.10;743.70;;;;;;;;;;4956449;28;20027;-78
2021/07/22 12:36:24;;;;;;;821.80;755.30;;;;;;;;;;4973639;28;20062;-80
2021/07/22 12:39:30;;;;;;;825.53;758.67;;;;;;;;;;4952955;29;20586;-76
2021/07/22 12:42:08;;;;;;;807.42;741.35;;;;;;;;;;4876513;29;20036;-85
2021/07/22 12:44:40;;;;;;;801.63;735.55;;;;;;;;;;4861403;29;20033;-85
2021/07/22 12:47:24;;;;;;;797.58;731.53;;;;;;;;;;4923969;28;20603;-84
2021/07/22 12:49:50;;;;;;;801.17;735.03;;;;;;;;;;4941415;28;20479;-76
2021/07/22 12:52:16;;;;;;;797.90;732.00;;;;;;;;;;4947646;29;20102;-80
2021/07/22 12:54:42;;;;;;;798.88;732.85;;;;;;;;;;4936040;29;20042;-82
2021/07/22 12:57:08;;;;;;;799.67;733.80;;;;;;;;;;4949888;28;20372;-82
2021/07/22 12:59:34;;;;;;;811.10;745.13;;;;;;;;;;4967800;28;20054;-82
2021/07/22 13:02:05;;;;;;;827.72;761.22;;;;;;;;;;4955256;28;20014;-76
2021/07/22 13:04:31;;;;;;;834.60;767.85;;;;;;;;;;4954016;28;20031;-79
2021/07/22 13:06:57;;;;;;;851.92;784.65;;;;;;;;;;4935818;28;20081;-80
2021/07/22 13:09:23;;;;;;;848.58;781.60;;;;;;;;;;4949460;28;20082;-80
2021/07/22 13:11:56;;;;;;;848.72;781.78;;;;;;;;;;4951574;28;20023;-83
2021/07/22 13:14:23;;;;;;;830.85;764.58;;;;;;;;;;4972568;28;20073;-75
2021/07/22 13:16:49;;;;;;;829.28;762.92;;;;;;;;;;4953311;28;20023;-79
2021/07/22 13:19:16;;;;;;;837.85;771.22;;;;;;;;;;4945948;28;20034;-80
2021/07/22 13:21:44;;;;;;;837.67;771.10;;;;;;;;;;4954737;28;20041;-78
2021/07/22 13:24:10;;;;;;;836.22;769.72;;;;;;;;;;4968894;28;20060;-78
2021/07/22 13:26:36;;;;;;;834.45;768.08;;;;;;;;;;4943499;29;20035;-79
2021/07/22 13:29:02;;;;;;;831.78;765.40;;;;;;;;;;4947259;29;20030;-76
2021/07/22 13:31:28;;;;;;;822.22;756.10;;;;;;;;;;4937935;29;20019;-77
2021/07/22 13:33:54;;;;;;;827.25;761.00;;;;;;;;;;4939282;29;20031;-77
2021/07/22 13:36:20;;;;;;;825.58;759.33;;;;;;;;;;4939977;28;20031;-79
2021/07/22 13:38:46;;;;;;;817.90;751.63;;;;;;;;;;4941646;29;20472;-77
2021/07/22 13:41:12;;;;;;;808.53;742.78;;;;;;;;;;4939493;29;20027;-80
2021/07/22 13:43:39;;;;;;;799.67;734.00;;;;;;;;;;4939482;29;20030;-78
2021/07/22 13:46:05;;;;;;;794.47;728.92;;;;;;;;;;4939116;29;20502;-75
2021/07/22 13:48:31;;;;;;;791.47;726.00;;;;;;;;;;4973129;28;20030;-79
2021/07/22 13:50:57;;;;;;;804.28;738.40;;;;;;;;;;4966020;28;20059;-78
2021/07/22 13:53:23;;;;;;;800.88;735.10;;;;;;;;;;4935716;28;1107342;-79
2021/07/22 13:55:49;;;;;;;794.97;729.40;;;;;;;;;;4959579;28;20073;-78